01:49 Langlaufen Seefeld Skating
Ort Seefeld Datum 10.01.2017 17:46:29
Kategorie Langlaufen
Distanz 25,19 Kilometer Steigung 181,0 Meter Gefälle -190,0 Meter
Gesamt Zeit 01:49:10 Aktiv 01:48:52 Pause 00:00:18
Durchs. Tempo 00:04:19 min/km Tempo max. 00:03:05 min/km Tempo min. 00:07:33 min/km
Kalorien 0 Durchs. HF 140 BPM HF max. 157 BPM
Wetter -13 °C PartClouds Min/Max: -13,0 °C/-12,2 °C; Druck: 1011,3 mbar; Rel. Feuchte: 83,9%; Taupunkt: -13,4 °C; Windgeschwindigkeit: 2,7 km/h; Niederschlag: 0,0mm
Ausrüstung Salomon - Equipe 10 SK
Salomon - RS Carbon
Notiz Seefeld Nachtloipe 8x PLUS ... bis -14°, stumpf - tw. mit Helli, eher locker ... garmin connect
Splits
Distanz (km) Gesamt Zeit Split Zeit Split Tempo Split Tempo Höhenprofil (m)
1,00 00:04:22 00:04:22 00:04:22 13,7 0,69
2,00 00:09:25 00:05:03 00:05:04 11,9 9,71
3,00 00:13:26 00:04:00 00:04:00 15,0 -10,34
4,00 00:17:52 00:04:25 00:04:26 13,5 0,51
5,00 00:23:01 00:05:09 00:05:09 11,6 9,88
6,00 00:27:09 00:04:08 00:04:08 14,5 -10,18
7,00 00:31:30 00:04:20 00:04:21 13,8 -0,23
8,00 00:36:27 00:04:57 00:04:57 12,1 10,28
9,00 00:40:32 00:04:04 00:04:05 14,7 -9,68
10,00 00:44:48 00:04:16 00:04:16 14,1 -0,62
11,00 00:49:39 00:04:51 00:04:51 12,4 9,99
12,00 00:53:38 00:03:58 00:03:59 15,1 -9,05
13,00 00:57:43 00:04:05 00:04:05 14,7 -0,96
14,00 01:02:40 00:04:56 00:04:56 12,1 10,00
15,00 01:06:46 00:04:05 00:04:06 14,6 -8,74
16,00 01:10:47 00:04:01 00:04:01 14,9 -1,26
17,00 01:15:22 00:04:35 00:04:35 13,1 10,01
18,00 01:19:27 00:04:05 00:04:05 14,7 -8,05
19,00 01:23:22 00:03:54 00:03:54 15,4 -1,95
20,00 01:27:54 00:04:32 00:04:32 13,2 10,01
21,00 01:31:45 00:03:51 00:03:51 15,6 -6,86
22,00 01:35:38 00:03:52 00:03:53 15,5 -3,14
23,00 01:40:03 00:04:24 00:04:25 13,6 10,01
24,00 01:43:47 00:03:44 00:03:45 16,0 -5,81
25,00 01:47:47 00:04:00 00:04:00 15,0 -4,20
25,25 01:48:52 00:01:04 00:04:12 14,3 0,00